sensor_id;sensor_type;location;lat;lon;timestamp;temperature;humidity
18794;DHT22;29610;49.022;12.114;2024-01-06T00:01:20;4.20;99.90
18794;DHT22;29610;49.022;12.114;2024-01-06T00:03:50;4.20;99.90
18794;DHT22;29610;49.022;12.114;2024-01-06T00:06:19;4.20;99.90
18794;DHT22;29610;49.022;12.114;2024-01-06T00:08:47;4.20;99.90
18794;DHT22;29610;49.022;12.114;2024-01-06T00:11:20;4.20;99.90
18794;DHT22;29610;49.022;12.114;2024-01-06T00:13:50;3.50;99.90
18794;DHT22;29610;49.022;12.114;2024-01-06T00:16:19;4.20;99.90
18794;DHT22;29610;49.022;12.114;2024-01-06T00:18:50;4.20;99.90
18794;DHT22;29610;49.022;12.114;2024-01-06T00:21:18;4.20;99.90
18794;DHT22;29610;49.022;12.114;2024-01-06T00:23:47;4.20;99.90
18794;DHT22;29610;49.022;12.114;2024-01-06T00:26:15;4.20;99.90
18794;DHT22;29610;49.022;12.114;2024-01-06T00:28:43;4.30;99.90
18794;DHT22;29610;49.022;12.114;2024-01-06T00:31:11;4.20;99.90
18794;DHT22;29610;49.022;12.114;2024-01-06T00:33:39;4.20;99.90
18794;DHT22;29610;49.022;12.114;2024-01-06T00:36:09;4.20;99.90
18794;DHT22;29610;49.022;12.114;2024-01-06T00:38:38;4.20;99.90
18794;DHT22;29610;49.022;12.114;2024-01-06T00:41:06;4.20;99.90
18794;DHT22;29610;49.022;12.114;2024-01-06T00:43:34;4.20;99.90
18794;DHT22;29610;49.022;12.114;2024-01-06T00:46:03;4.20;99.90
18794;DHT22;29610;49.022;12.114;2024-01-06T00:48:31;4.20;99.90
18794;DHT22;29610;49.022;12.114;2024-01-06T00:51:00;4.20;99.90
18794;DHT22;29610;49.022;12.114;2024-01-06T00:53:29;4.20;99.90
18794;DHT22;29610;49.022;12.114;2024-01-06T00:55:58;4.20;99.90
18794;DHT22;29610;49.022;12.114;2024-01-06T00:58:26;4.20;99.90
18794;DHT22;29610;49.022;12.114;2024-01-06T01:00:54;4.20;99.90
18794;DHT22;29610;49.022;12.114;2024-01-06T01:03:28;4.20;99.90
18794;DHT22;29610;49.022;12.114;2024-01-06T01:05:57;4.20;99.90
18794;DHT22;29610;49.022;12.114;2024-01-06T01:08:26;4.20;99.90
18794;DHT22;29610;49.022;12.114;2024-01-06T01:10:56;4.20;99.90
18794;DHT22;29610;49.022;12.114;2024-01-06T01:13:24;4.20;99.90
18794;DHT22;29610;49.022;12.114;2024-01-06T01:15:53;4.10;99.90
18794;DHT22;29610;49.022;12.114;2024-01-06T01:18:21;4.10;99.90
18794;DHT22;29610;49.022;12.114;2024-01-06T01:20:49;4.10;99.90
18794;DHT22;29610;49.022;12.114;2024-01-06T01:23:18;4.10;99.90
18794;DHT22;29610;49.022;12.114;2024-01-06T01:25:46;4.20;99.90
18794;DHT22;29610;49.022;12.114;2024-01-06T01:28:15;4.10;99.90
18794;DHT22;29610;49.022;12.114;2024-01-06T01:30:44;4.20;99.90
18794;DHT22;29610;49.022;12.114;2024-01-06T01:33:12;4.20;99.90
18794;DHT22;29610;49.022;12.114;2024-01-06T01:35:40;4.20;99.90
18794;DHT22;29610;49.022;12.114;2024-01-06T01:38:09;4.20;99.90
18794;DHT22;29610;49.022;12.114;2024-01-06T01:40:37;4.20;99.90
18794;DHT22;29610;49.022;12.114;2024-01-06T01:43:05;4.20;99.90
18794;DHT22;29610;49.022;12.114;2024-01-06T01:45:35;4.20;99.90
18794;DHT22;29610;49.022;12.114;2024-01-06T01:48:03;4.20;99.90
18794;DHT22;29610;49.022;12.114;2024-01-06T01:50:33;4.20;99.90
18794;DHT22;29610;49.022;12.114;2024-01-06T01:53:01;4.20;99.90
18794;DHT22;29610;49.022;12.114;2024-01-06T01:55:30;4.20;99.90
18794;DHT22;29610;49.022;12.114;2024-01-06T01:57:58;4.20;99.90
18794;DHT22;29610;49.022;12.114;2024-01-06T02:00:28;4.20;99.90
18794;DHT22;29610;49.022;12.114;2024-01-06T02:02:58;4.20;99.90
18794;DHT22;29610;49.022;12.114;2024-01-06T02:05:30;4.20;99.90
18794;DHT22;29610;49.022;12.114;2024-01-06T02:07:58;4.20;99.90
18794;DHT22;29610;49.022;12.114;2024-01-06T02:10:27;4.20;99.90
18794;DHT22;29610;49.022;12.114;2024-01-06T02:12:56;4.20;99.90
18794;DHT22;29610;49.022;12.114;2024-01-06T02:15:24;4.20;99.90
18794;DHT22;29610;49.022;12.114;2024-01-06T02:17:52;4.10;99.90
18794;DHT22;29610;49.022;12.114;2024-01-06T02:20:23;4.20;99.90
18794;DHT22;29610;49.022;12.114;2024-01-06T02:22:54;4.10;99.90
18794;DHT22;29610;49.022;12.114;2024-01-06T02:25:23;4.10;99.90
18794;DHT22;29610;49.022;12.114;2024-01-06T02:27:52;4.10;99.90
18794;DHT22;29610;49.022;12.114;2024-01-06T02:30:20;4.10;99.90
18794;DHT22;29610;49.022;12.114;2024-01-06T02:32:48;4.10;99.90
18794;DHT22;29610;49.022;12.114;2024-01-06T02:35:17;4.10;99.90
18794;DHT22;29610;49.022;12.114;2024-01-06T02:37:45;4.10;99.90
18794;DHT22;29610;49.022;12.114;2024-01-06T02:40:15;4.10;99.90
18794;DHT22;29610;49.022;12.114;2024-01-06T02:42:43;4.10;99.90
18794;DHT22;29610;49.022;12.114;2024-01-06T02:45:11;4.10;99.90
18794;DHT22;29610;49.022;12.114;2024-01-06T02:47:40;4.10;99.90
18794;DHT22;29610;49.022;12.114;2024-01-06T02:50:08;4.10;99.90
18794;DHT22;29610;49.022;12.114;2024-01-06T02:52:37;4.10;99.90
18794;DHT22;29610;49.022;12.114;2024-01-06T02:55:06;4.10;99.90
18794;DHT22;29610;49.022;12.114;2024-01-06T02:57:37;4.10;99.90
18794;DHT22;29610;49.022;12.114;2024-01-06T03:00:07;4.10;99.90
18794;DHT22;29610;49.022;12.114;2024-01-06T03:02:36;4.20;99.90
18794;DHT22;29610;49.022;12.114;2024-01-06T03:05:05;4.10;99.90
18794;DHT22;29610;49.022;12.114;2024-01-06T03:07:33;4.10;99.90
18794;DHT22;29610;49.022;12.114;2024-01-06T03:10:01;4.10;99.90
18794;DHT22;29610;49.022;12.114;2024-01-06T03:12:30;4.10;99.90
18794;DHT22;29610;49.022;12.114;2024-01-06T03:15:00;4.10;99.90
18794;DHT22;29610;49.022;12.114;2024-01-06T03:17:28;4.10;99.90
18794;DHT22;29610;49.022;12.114;2024-01-06T03:19:57;4.10;99.90
18794;DHT22;29610;49.022;12.114;2024-01-06T03:22:25;4.10;99.90
18794;DHT22;29610;49.022;12.114;2024-01-06T03:24:54;4.10;99.90
18794;DHT22;29610;49.022;12.114;2024-01-06T03:27:22;4.10;99.90
18794;DHT22;29610;49.022;12.114;2024-01-06T03:29:51;4.10;99.90
18794;DHT22;29610;49.022;12.114;2024-01-06T03:32:21;4.10;99.90
18794;DHT22;29610;49.022;12.114;2024-01-06T03:34:49;4.10;99.90
18794;DHT22;29610;49.022;12.114;2024-01-06T03:37:18;4.10;99.90
18794;DHT22;29610;49.022;12.114;2024-01-06T03:39:46;4.20;99.90
18794;DHT22;29610;49.022;12.114;2024-01-06T03:42:14;4.10;99.90
18794;DHT22;29610;49.022;12.114;2024-01-06T03:44:42;4.10;99.90
18794;DHT22;29610;49.022;12.114;2024-01-06T03:47:11;4.10;99.90
18794;DHT22;29610;49.022;12.114;2024-01-06T03:49:40;4.10;99.90
18794;DHT22;29610;49.022;12.114;2024-01-06T03:52:09;4.10;99.90
18794;DHT22;29610;49.022;12.114;2024-01-06T03:54:37;4.10;99.90
18794;DHT22;29610;49.022;12.114;2024-01-06T03:57:05;4.10;99.90
18794;DHT22;29610;49.022;12.114;2024-01-06T03:59:34;4.10;99.90
18794;DHT22;29610;49.022;12.114;2024-01-06T04:02:02;4.00;99.90
18794;DHT22;29610;49.022;12.114;2024-01-06T04:04:30;4.00;99.90
18794;DHT22;29610;49.022;12.114;2024-01-06T04:07:00;4.10;99.90
18794;DHT22;29610;49.022;12.114;2024-01-06T04:09:29;4.00;99.90
18794;DHT22;29610;49.022;12.114;2024-01-06T04:11:57;4.00;99.90
18794;DHT22;29610;49.022;12.114;2024-01-06T04:14:27;4.00;99.90
18794;DHT22;29610;49.022;12.114;2024-01-06T04:16:55;4.00;99.90
18794;DHT22;29610;49.022;12.114;2024-01-06T04:19:24;4.00;99.90
18794;DHT22;29610;49.022;12.114;2024-01-06T04:21:52;4.00;99.90
18794;DHT22;29610;49.022;12.114;2024-01-06T04:24:22;4.10;99.90
18794;DHT22;29610;49.022;12.114;2024-01-06T04:26:50;4.00;99.90
18794;DHT22;29610;49.022;12.114;2024-01-06T04:29:19;4.00;99.90
18794;DHT22;29610;49.022;12.114;2024-01-06T04:31:47;4.00;99.90
18794;DHT22;29610;49.022;12.114;2024-01-06T04:34:15;4.00;99.90
18794;DHT22;29610;49.022;12.114;2024-01-06T04:36:43;4.10;99.90
18794;DHT22;29610;49.022;12.114;2024-01-06T04:39:12;4.00;99.90
18794;DHT22;29610;49.022;12.114;2024-01-06T04:41:42;4.00;99.90
18794;DHT22;29610;49.022;12.114;2024-01-06T04:44:10;4.10;99.90
18794;DHT22;29610;49.022;12.114;2024-01-06T04:46:38;4.00;99.90
18794;DHT22;29610;49.022;12.114;2024-01-06T04:49:06;4.00;99.90
18794;DHT22;29610;49.022;12.114;2024-01-06T04:51:35;4.00;99.90
18794;DHT22;29610;49.022;12.114;2024-01-06T04:54:03;4.00;99.90
18794;DHT22;29610;49.022;12.114;2024-01-06T04:56:32;4.00;99.90
18794;DHT22;29610;49.022;12.114;2024-01-06T04:59:04;4.00;99.90
18794;DHT22;29610;49.022;12.114;2024-01-06T05:01:33;4.00;99.90
18794;DHT22;29610;49.022;12.114;2024-01-06T05:04:01;4.00;99.90
18794;DHT22;29610;49.022;12.114;2024-01-06T05:06:30;4.20;99.90
18794;DHT22;29610;49.022;12.114;2024-01-06T05:08:58;4.00;99.90
18794;DHT22;29610;49.022;12.114;2024-01-06T05:11:26;4.00;99.90
18794;DHT22;29610;49.022;12.114;2024-01-06T05:13:55;4.00;99.90
18794;DHT22;29610;49.022;12.114;2024-01-06T05:16:24;4.00;99.90
18794;DHT22;29610;49.022;12.114;2024-01-06T05:18:52;4.00;99.90
18794;DHT22;29610;49.022;12.114;2024-01-06T05:21:21;4.00;99.90
18794;DHT22;29610;49.022;12.114;2024-01-06T05:23:49;4.00;99.90
18794;DHT22;29610;49.022;12.114;2024-01-06T05:26:18;4.00;99.90
18794;DHT22;29610;49.022;12.114;2024-01-06T05:28:46;4.00;99.90
18794;DHT22;29610;49.022;12.114;2024-01-06T05:31:14;4.00;99.90
18794;DHT22;29610;49.022;12.114;2024-01-06T05:33:44;4.00;99.90
18794;DHT22;29610;49.022;12.114;2024-01-06T05:36:12;4.00;99.90
18794;DHT22;29610;49.022;12.114;2024-01-06T05:38:41;4.00;99.90
18794;DHT22;29610;49.022;12.114;2024-01-06T05:41:08;4.50;99.90
18794;DHT22;29610;49.022;12.114;2024-01-06T05:43:36;4.00;99.90
18794;DHT22;29610;49.022;12.114;2024-01-06T05:46:05;4.00;99.90
18794;DHT22;29610;49.022;12.114;2024-01-06T05:48:33;4.00;99.90
18794;DHT22;29610;49.022;12.114;2024-01-06T05:51:04;4.00;99.90
18794;DHT22;29610;49.022;12.114;2024-01-06T05:53:32;3.90;99.90
18794;DHT22;29610;49.022;12.114;2024-01-06T05:56:00;3.90;99.90
18794;DHT22;29610;49.022;12.114;2024-01-06T05:58:29;3.90;99.90
18794;DHT22;29610;49.022;12.114;2024-01-06T06:00:57;3.90;99.90
18794;DHT22;29610;49.022;12.114;2024-01-06T06:03:26;3.90;99.90
18794;DHT22;29610;49.022;12.114;2024-01-06T06:05:54;3.90;99.90
18794;DHT22;29610;49.022;12.114;2024-01-06T06:08:24;3.90;99.90
18794;DHT22;29610;49.022;12.114;2024-01-06T06:10:52;3.90;99.90
18794;DHT22;29610;49.022;12.114;2024-01-06T06:13:28;3.80;99.90
18794;DHT22;29610;49.022;12.114;2024-01-06T06:15:56;3.80;99.90
18794;DHT22;29610;49.022;12.114;2024-01-06T06:18:25;3.80;99.90
18794;DHT22;29610;49.022;12.114;2024-01-06T06:20:53;3.80;99.90
18794;DHT22;29610;49.022;12.114;2024-01-06T06:23:23;3.80;99.90
18794;DHT22;29610;49.022;12.114;2024-01-06T06:25:51;3.70;99.90
18794;DHT22;29610;49.022;12.114;2024-01-06T06:28:19;3.70;99.90
18794;DHT22;29610;49.022;12.114;2024-01-06T06:30:48;2.90;99.90
18794;DHT22;29610;49.022;12.114;2024-01-06T06:33:16;3.70;99.90
18794;DHT22;29610;49.022;12.114;2024-01-06T06:35:45;5.10;99.90
18794;DHT22;29610;49.022;12.114;2024-01-06T06:38:13;3.60;99.90
18794;DHT22;29610;49.022;12.114;2024-01-06T06:40:43;3.70;99.90
18794;DHT22;29610;49.022;12.114;2024-01-06T06:43:11;3.70;99.90
18794;DHT22;29610;49.022;12.114;2024-01-06T06:45:41;3.70;99.90
18794;DHT22;29610;49.022;12.114;2024-01-06T06:48:09;3.70;99.90
18794;DHT22;29610;49.022;12.114;2024-01-06T06:50:38;3.70;99.90
18794;DHT22;29610;49.022;12.114;2024-01-06T06:53:07;3.70;99.90
18794;DHT22;29610;49.022;12.114;2024-01-06T06:55:36;3.70;99.90
18794;DHT22;29610;49.022;12.114;2024-01-06T06:58:06;3.70;99.90
18794;DHT22;29610;49.022;12.114;2024-01-06T07:00:35;3.70;99.90
18794;DHT22;29610;49.022;12.114;2024-01-06T07:03:04;3.60;99.90
18794;DHT22;29610;49.022;12.114;2024-01-06T07:05:32;3.60;99.90
18794;DHT22;29610;49.022;12.114;2024-01-06T07:08:01;3.50;99.90
18794;DHT22;29610;49.022;12.114;2024-01-06T07:10:29;3.60;99.90
18794;DHT22;29610;49.022;12.114;2024-01-06T07:12:57;3.50;99.90
18794;DHT22;29610;49.022;12.114;2024-01-06T07:15:27;3.50;99.90
18794;DHT22;29610;49.022;12.114;2024-01-06T07:17:55;3.60;99.90
18794;DHT22;29610;49.022;12.114;2024-01-06T07:20:23;3.50;99.90
18794;DHT22;29610;49.022;12.114;2024-01-06T07:22:52;3.50;99.90
18794;DHT22;29610;49.022;12.114;2024-01-06T07:25:20;3.50;99.90
18794;DHT22;29610;49.022;12.114;2024-01-06T07:27:48;3.50;99.90
18794;DHT22;29610;49.022;12.114;2024-01-06T07:30:21;3.50;99.90
18794;DHT22;29610;49.022;12.114;2024-01-06T07:32:51;3.60;99.90
18794;DHT22;29610;49.022;12.114;2024-01-06T07:35:19;3.60;99.90
18794;DHT22;29610;49.022;12.114;2024-01-06T07:37:48;3.60;99.90
18794;DHT22;29610;49.022;12.114;2024-01-06T07:40:16;3.70;99.90
18794;DHT22;29610;49.022;12.114;2024-01-06T07:42:47;3.70;99.90
18794;DHT22;29610;49.022;12.114;2024-01-06T07:45:15;3.70;99.90
18794;DHT22;29610;49.022;12.114;2024-01-06T07:47:43;3.70;99.90
18794;DHT22;29610;49.022;12.114;2024-01-06T07:50:13;3.80;99.90
18794;DHT22;29610;49.022;12.114;2024-01-06T07:52:41;3.80;99.90
18794;DHT22;29610;49.022;12.114;2024-01-06T07:55:09;3.80;99.90
18794;DHT22;29610;49.022;12.114;2024-01-06T07:57:37;3.80;99.90
18794;DHT22;29610;49.022;12.114;2024-01-06T08:00:07;3.80;99.90
18794;DHT22;29610;49.022;12.114;2024-01-06T08:02:39;3.80;99.90
18794;DHT22;29610;49.022;12.114;2024-01-06T08:05:07;3.80;99.90
18794;DHT22;29610;49.022;12.114;2024-01-06T08:07:38;3.80;99.90
18794;DHT22;29610;49.022;12.114;2024-01-06T08:10:07;3.80;99.90
18794;DHT22;29610;49.022;12.114;2024-01-06T08:12:36;3.80;99.90
18794;DHT22;29610;49.022;12.114;2024-01-06T08:15:05;3.90;99.90
18794;DHT22;29610;49.022;12.114;2024-01-06T08:17:35;3.90;99.90
18794;DHT22;29610;49.022;12.114;2024-01-06T08:20:05;3.90;99.90
18794;DHT22;29610;49.022;12.114;2024-01-06T08:22:33;3.90;99.90
18794;DHT22;29610;49.022;12.114;2024-01-06T08:25:03;4.20;99.90
18794;DHT22;29610;49.022;12.114;2024-01-06T08:27:34;4.00;99.90
18794;DHT22;29610;49.022;12.114;2024-01-06T08:30:03;4.00;99.90
18794;DHT22;29610;49.022;12.114;2024-01-06T08:32:32;4.00;99.90
18794;DHT22;29610;49.022;12.114;2024-01-06T08:35:00;4.00;99.90
18794;DHT22;29610;49.022;12.114;2024-01-06T08:37:29;4.00;99.90
18794;DHT22;29610;49.022;12.114;2024-01-06T08:39:57;4.10;99.90
18794;DHT22;29610;49.022;12.114;2024-01-06T08:42:27;4.00;99.90
18794;DHT22;29610;49.022;12.114;2024-01-06T08:44:55;4.00;99.90
18794;DHT22;29610;49.022;12.114;2024-01-06T08:47:23;4.00;99.90
18794;DHT22;29610;49.022;12.114;2024-01-06T08:49:52;4.00;99.90
18794;DHT22;29610;49.022;12.114;2024-01-06T08:52:20;4.00;99.90
18794;DHT22;29610;49.022;12.114;2024-01-06T08:54:48;4.10;99.90
18794;DHT22;29610;49.022;12.114;2024-01-06T08:57:17;4.10;99.90
18794;DHT22;29610;49.022;12.114;2024-01-06T08:59:47;4.20;99.90
18794;DHT22;29610;49.022;12.114;2024-01-06T09:02:15;4.30;99.90
18794;DHT22;29610;49.022;12.114;2024-01-06T09:04:44;4.30;99.90
18794;DHT22;29610;49.022;12.114;2024-01-06T09:07:13;4.40;99.90
18794;DHT22;29610;49.022;12.114;2024-01-06T09:09:41;4.40;99.90
18794;DHT22;29610;49.022;12.114;2024-01-06T09:12:09;4.50;99.90
18794;DHT22;29610;49.022;12.114;2024-01-06T09:14:38;4.50;99.90
18794;DHT22;29610;49.022;12.114;2024-01-06T09:17:08;4.50;99.90
18794;DHT22;29610;49.022;12.114;2024-01-06T09:19:37;4.50;99.90
18794;DHT22;29610;49.022;12.114;2024-01-06T09:22:05;4.60;99.90
18794;DHT22;29610;49.022;12.114;2024-01-06T09:24:33;4.60;99.90
18794;DHT22;29610;49.022;12.114;2024-01-06T09:27:01;4.60;99.90
18794;DHT22;29610;49.022;12.114;2024-01-06T09:29:31;4.50;99.90
18794;DHT22;29610;49.022;12.114;2024-01-06T09:31:59;4.50;99.90
18794;DHT22;29610;49.022;12.114;2024-01-06T09:34:29;4.60;99.90
18794;DHT22;29610;49.022;12.114;2024-01-06T09:36:57;4.70;99.90
18794;DHT22;29610;49.022;12.114;2024-01-06T09:39:26;4.70;99.90
18794;DHT22;29610;49.022;12.114;2024-01-06T09:41:54;4.80;99.90
18794;DHT22;29610;49.022;12.114;2024-01-06T09:44:22;4.90;99.90
18794;DHT22;29610;49.022;12.114;2024-01-06T09:46:50;4.90;99.90
18794;DHT22;29610;49.022;12.114;2024-01-06T09:49:23;5.00;99.90
18794;DHT22;29610;49.022;12.114;2024-01-06T09:51:58;5.00;99.90
18794;DHT22;29610;49.022;12.114;2024-01-06T09:54:30;4.90;99.90
18794;DHT22;29610;49.022;12.114;2024-01-06T09:57:04;5.00;99.90
18794;DHT22;29610;49.022;12.114;2024-01-06T09:59:33;5.20;99.90
18794;DHT22;29610;49.022;12.114;2024-01-06T10:02:04;5.30;99.90
18794;DHT22;29610;49.022;12.114;2024-01-06T10:04:32;5.30;99.90
18794;DHT22;29610;49.022;12.114;2024-01-06T10:07:02;5.30;99.90
18794;DHT22;29610;49.022;12.114;2024-01-06T10:09:31;5.20;99.90
18794;DHT22;29610;49.022;12.114;2024-01-06T10:11:59;5.20;99.90
18794;DHT22;29610;49.022;12.114;2024-01-06T10:14:27;5.30;99.90
18794;DHT22;29610;49.022;12.114;2024-01-06T10:16:55;5.20;99.90
18794;DHT22;29610;49.022;12.114;2024-01-06T10:19:23;5.20;99.90
18794;DHT22;29610;49.022;12.114;2024-01-06T10:21:52;5.20;99.90
18794;DHT22;29610;49.022;12.114;2024-01-06T10:24:22;5.20;99.90
18794;DHT22;29610;49.022;12.114;2024-01-06T10:26:50;5.30;99.90
18794;DHT22;29610;49.022;12.114;2024-01-06T10:29:18;5.20;99.90
18794;DHT22;29610;49.022;12.114;2024-01-06T10:31:47;5.30;99.90
18794;DHT22;29610;49.022;12.114;2024-01-06T10:34:21;5.30;99.90
18794;DHT22;29610;49.022;12.114;2024-01-06T10:36:50;5.20;99.90
18794;DHT22;29610;49.022;12.114;2024-01-06T10:39:20;5.30;99.90
18794;DHT22;29610;49.022;12.114;2024-01-06T10:41:49;5.20;99.90
18794;DHT22;29610;49.022;12.114;2024-01-06T10:44:21;5.30;99.90
18794;DHT22;29610;49.022;12.114;2024-01-06T10:46:50;5.30;99.90
18794;DHT22;29610;49.022;12.114;2024-01-06T10:49:20;5.40;99.90
18794;DHT22;29610;49.022;12.114;2024-01-06T10:51:51;5.60;99.90
18794;DHT22;29610;49.022;12.114;2024-01-06T10:54:24;5.60;99.90
18794;DHT22;29610;49.022;12.114;2024-01-06T10:56:57;5.80;99.90
18794;DHT22;29610;49.022;12.114;2024-01-06T10:59:29;5.80;99.90
18794;DHT22;29610;49.022;12.114;2024-01-06T11:02:01;5.80;99.90
18794;DHT22;29610;49.022;12.114;2024-01-06T11:04:30;5.80;99.90
18794;DHT22;29610;49.022;12.114;2024-01-06T11:06:59;5.80;99.90
18794;DHT22;29610;49.022;12.114;2024-01-06T11:09:32;5.80;99.90
18794;DHT22;29610;49.022;12.114;2024-01-06T11:12:06;5.70;99.90
18794;DHT22;29610;49.022;12.114;2024-01-06T11:14:37;5.60;99.90
18794;DHT22;29610;49.022;12.114;2024-01-06T11:17:05;5.60;99.90
18794;DHT22;29610;49.022;12.114;2024-01-06T11:19:44;5.60;99.90
18794;DHT22;29610;49.022;12.114;2024-01-06T11:22:25;5.60;99.90
18794;DHT22;29610;49.022;12.114;2024-01-06T11:25:04;4.70;99.90
18794;DHT22;29610;49.022;12.114;2024-01-06T11:27:35;5.60;99.90
18794;DHT22;29610;49.022;12.114;2024-01-06T11:30:05;5.50;99.90
18794;DHT22;29610;49.022;12.114;2024-01-06T11:32:35;5.50;99.90
18794;DHT22;29610;49.022;12.114;2024-01-06T11:35:07;5.60;99.90
18794;DHT22;29610;49.022;12.114;2024-01-06T11:37:51;5.60;99.90
18794;DHT22;29610;49.022;12.114;2024-01-06T11:40:31;5.50;99.90
18794;DHT22;29610;49.022;12.114;2024-01-06T11:43:03;5.50;99.90
18794;DHT22;29610;49.022;12.114;2024-01-06T11:45:33;5.40;99.90
18794;DHT22;29610;49.022;12.114;2024-01-06T11:48:04;5.40;99.90
18794;DHT22;29610;49.022;12.114;2024-01-06T11:50:35;5.30;99.90
18794;DHT22;29610;49.022;12.114;2024-01-06T11:53:06;5.70;99.90
18794;DHT22;29610;49.022;12.114;2024-01-06T11:55:39;5.30;99.90
18794;DHT22;29610;49.022;12.114;2024-01-06T11:58:09;5.30;99.90
18794;DHT22;29610;49.022;12.114;2024-01-06T12:00:38;5.40;99.90
18794;DHT22;29610;49.022;12.114;2024-01-06T12:03:08;5.40;99.90
18794;DHT22;29610;49.022;12.114;2024-01-06T12:05:37;5.40;99.90
18794;DHT22;29610;49.022;12.114;2024-01-06T12:08:05;5.40;99.90
18794;DHT22;29610;49.022;12.114;2024-01-06T12:10:35;5.30;99.90
18794;DHT22;29610;49.022;12.114;2024-01-06T12:13:07;5.30;99.90
18794;DHT22;29610;49.022;12.114;2024-01-06T12:15:37;5.20;99.90
18794;DHT22;29610;49.022;12.114;2024-01-06T12:18:07;5.90;99.90
18794;DHT22;29610;49.022;12.114;2024-01-06T12:20:35;4.30;99.90
18794;DHT22;29610;49.022;12.114;2024-01-06T12:23:04;5.30;99.90
18794;DHT22;29610;49.022;12.114;2024-01-06T12:25:34;5.20;99.90
18794;DHT22;29610;49.022;12.114;2024-01-06T12:28:08;5.20;99.90
18794;DHT22;29610;49.022;12.114;2024-01-06T12:30:38;5.10;99.90
18794;DHT22;29610;49.022;12.114;2024-01-06T12:33:07;5.20;99.90
18794;DHT22;29610;49.022;12.114;2024-01-06T12:35:36;5.20;99.90
18794;DHT22;29610;49.022;12.114;2024-01-06T12:38:04;5.10;99.90
18794;DHT22;29610;49.022;12.114;2024-01-06T12:40:35;5.20;99.90
18794;DHT22;29610;49.022;12.114;2024-01-06T12:43:04;5.20;99.90
18794;DHT22;29610;49.022;12.114;2024-01-06T12:45:35;5.10;99.90
18794;DHT22;29610;49.022;12.114;2024-01-06T12:48:04;5.10;99.90
18794;DHT22;29610;49.022;12.114;2024-01-06T12:50:32;5.10;99.90
18794;DHT22;29610;49.022;12.114;2024-01-06T12:53:01;5.10;99.90
18794;DHT22;29610;49.022;12.114;2024-01-06T12:55:29;5.90;99.90
18794;DHT22;29610;49.022;12.114;2024-01-06T12:57:57;5.20;99.90
18794;DHT22;29610;49.022;12.114;2024-01-06T13:00:28;5.20;99.90
18794;DHT22;29610;49.022;12.114;2024-01-06T13:03:04;5.30;99.90
18794;DHT22;29610;49.022;12.114;2024-01-06T13:05:32;5.20;99.90
18794;DHT22;29610;49.022;12.114;2024-01-06T13:08:01;5.20;99.90
18794;DHT22;29610;49.022;12.114;2024-01-06T13:10:30;5.20;99.90
18794;DHT22;29610;49.022;12.114;2024-01-06T13:12:58;5.10;99.90
18794;DHT22;29610;49.022;12.114;2024-01-06T13:15:26;5.10;99.90
18794;DHT22;29610;49.022;12.114;2024-01-06T13:17:55;5.10;99.90
18794;DHT22;29610;49.022;12.114;2024-01-06T13:20:25;5.10;99.90
18794;DHT22;29610;49.022;12.114;2024-01-06T13:22:53;5.30;99.90
18794;DHT22;29610;49.022;12.114;2024-01-06T13:25:22;5.10;99.90
18794;DHT22;29610;49.022;12.114;2024-01-06T13:27:50;5.10;99.90
18794;DHT22;29610;49.022;12.114;2024-01-06T13:30:19;5.10;99.90
18794;DHT22;29610;49.022;12.114;2024-01-06T13:32:47;5.10;99.90
18794;DHT22;29610;49.022;12.114;2024-01-06T13:35:17;5.10;99.90
18794;DHT22;29610;49.022;12.114;2024-01-06T13:37:47;5.10;99.90
18794;DHT22;29610;49.022;12.114;2024-01-06T13:40:18;5.10;99.90
18794;DHT22;29610;49.022;12.114;2024-01-06T13:42:46;5.20;99.90
18794;DHT22;29610;49.022;12.114;2024-01-06T13:45:15;5.10;99.90
18794;DHT22;29610;49.022;12.114;2024-01-06T13:47:44;5.10;99.90
18794;DHT22;29610;49.022;12.114;2024-01-06T13:50:14;5.20;99.90
18794;DHT22;29610;49.022;12.114;2024-01-06T13:52:43;5.20;99.90
18794;DHT22;29610;49.022;12.114;2024-01-06T13:55:14;5.20;99.90
18794;DHT22;29610;49.022;12.114;2024-01-06T13:57:42;5.20;99.90
18794;DHT22;29610;49.022;12.114;2024-01-06T14:00:11;5.20;99.90
18794;DHT22;29610;49.022;12.114;2024-01-06T14:02:47;5.20;99.90
18794;DHT22;29610;49.022;12.114;2024-01-06T14:05:16;5.20;99.90
18794;DHT22;29610;49.022;12.114;2024-01-06T14:07:46;5.20;99.90
18794;DHT22;29610;49.022;12.114;2024-01-06T14:10:18;5.10;99.90
18794;DHT22;29610;49.022;12.114;2024-01-06T14:12:47;6.50;99.90
18794;DHT22;29610;49.022;12.114;2024-01-06T14:15:15;5.00;99.90
18794;DHT22;29610;49.022;12.114;2024-01-06T14:17:44;5.00;99.90
18794;DHT22;29610;49.022;12.114;2024-01-06T14:20:17;5.00;99.90
18794;DHT22;29610;49.022;12.114;2024-01-06T14:22:46;5.00;99.90
18794;DHT22;29610;49.022;12.114;2024-01-06T14:25:15;5.00;99.90
18794;DHT22;29610;49.022;12.114;2024-01-06T14:27:46;5.00;99.90
18794;DHT22;29610;49.022;12.114;2024-01-06T14:30:15;4.90;99.90
18794;DHT22;29610;49.022;12.114;2024-01-06T14:32:44;5.00;99.90
18794;DHT22;29610;49.022;12.114;2024-01-06T14:35:12;4.90;99.90
18794;DHT22;29610;49.022;12.114;2024-01-06T14:37:41;4.90;99.90
18794;DHT22;29610;49.022;12.114;2024-01-06T14:40:12;4.90;99.90
18794;DHT22;29610;49.022;12.114;2024-01-06T14:42:40;4.80;99.90
18794;DHT22;29610;49.022;12.114;2024-01-06T14:45:10;4.80;99.90
18794;DHT22;29610;49.022;12.114;2024-01-06T14:47:39;4.90;99.90
18794;DHT22;29610;49.022;12.114;2024-01-06T14:50:08;4.80;99.90
18794;DHT22;29610;49.022;12.114;2024-01-06T14:52:37;4.80;99.90
18794;DHT22;29610;49.022;12.114;2024-01-06T14:55:06;4.80;99.90
18794;DHT22;29610;49.022;12.114;2024-01-06T14:57:34;4.80;99.90
18794;DHT22;29610;49.022;12.114;2024-01-06T15:00:04;4.70;99.90
18794;DHT22;29610;49.022;12.114;2024-01-06T15:02:35;4.70;99.90
18794;DHT22;29610;49.022;12.114;2024-01-06T15:05:04;4.70;99.90
18794;DHT22;29610;49.022;12.114;2024-01-06T15:07:33;4.60;99.90
18794;DHT22;29610;49.022;12.114;2024-01-06T15:10:02;4.60;99.90
18794;DHT22;29610;49.022;12.114;2024-01-06T15:12:32;4.60;99.90
18794;DHT22;29610;49.022;12.114;2024-01-06T15:15:01;4.60;99.90
18794;DHT22;29610;49.022;12.114;2024-01-06T15:17:29;4.50;99.90
18794;DHT22;29610;49.022;12.114;2024-01-06T15:19:59;4.50;99.90
18794;DHT22;29610;49.022;12.114;2024-01-06T15:22:28;4.50;99.90
18794;DHT22;29610;49.022;12.114;2024-01-06T15:24:59;4.40;99.90
18794;DHT22;29610;49.022;12.114;2024-01-06T15:27:32;4.50;99.90
18794;DHT22;29610;49.022;12.114;2024-01-06T15:30:01;4.40;99.90
18794;DHT22;29610;49.022;12.114;2024-01-06T15:32:34;4.40;99.90
18794;DHT22;29610;49.022;12.114;2024-01-06T15:35:05;4.40;99.90
18794;DHT22;29610;49.022;12.114;2024-01-06T15:37:33;4.30;99.90
18794;DHT22;29610;49.022;12.114;2024-01-06T15:40:02;4.30;99.90
18794;DHT22;29610;49.022;12.114;2024-01-06T15:42:30;4.30;99.90